createdAt,value
2018-03-04T00:01:31.934Z,62.13
2018-03-04T00:03:59.381Z,61.03
2018-03-04T00:06:26.833Z,63.80
2018-03-04T00:08:54.305Z,55.50
2018-03-04T00:11:21.756Z,61.67
2018-03-04T00:13:49.449Z,60.33
2018-03-04T00:16:16.930Z,59.27
2018-03-04T00:18:44.385Z,59.30
2018-03-04T00:21:11.865Z,56.80
2018-03-04T00:23:39.313Z,58.27
2018-03-04T00:26:06.821Z,58.33
2018-03-04T00:28:34.274Z,59.13
2018-03-04T00:31:01.725Z,61.40
2018-03-04T00:33:29.194Z,57.07
2018-03-04T00:35:56.651Z,58.20
2018-03-04T00:38:24.134Z,59.23
2018-03-04T00:40:51.581Z,60.20
2018-03-04T00:43:19.034Z,58.77
2018-03-04T00:45:46.505Z,61.33
2018-03-04T00:48:13.962Z,57.70
2018-03-04T00:50:41.453Z,56.47
2018-03-04T00:53:08.915Z,57.90
2018-03-04T00:55:36.384Z,59.93
2018-03-04T00:58:03.856Z,55.90
2018-03-04T01:00:31.305Z,57.97
2018-03-04T01:02:58.809Z,61.20
2018-03-04T01:05:26.260Z,55.87
2018-03-04T01:07:53.713Z,59.40
2018-03-04T01:10:21.206Z,63.60
2018-03-04T01:12:48.665Z,60.30
2018-03-04T01:15:16.406Z,60.90
2018-03-04T01:17:43.873Z,61.17
2018-03-04T01:20:11.334Z,61.03
2018-03-04T01:22:38.830Z,59.27
2018-03-04T01:25:06.312Z,57.07
2018-03-04T01:27:33.924Z,57.37
2018-03-04T01:30:01.373Z,59.27
2018-03-04T01:32:28.822Z,57.27
2018-03-04T01:34:56.294Z,67.00
2018-03-04T01:37:23.754Z,59.23
2018-03-04T01:39:51.374Z,59.97
2018-03-04T01:42:18.825Z,61.93
2018-03-04T01:44:46.284Z,63.30
2018-03-04T01:47:13.762Z,61.03
2018-03-04T01:49:41.214Z,55.97
2018-03-04T01:52:08.838Z,61.40
2018-03-04T01:54:36.301Z,63.13
2018-03-04T01:57:03.753Z,60.10
2018-03-04T01:59:31.221Z,63.47
2018-03-04T02:01:58.700Z,59.67
2018-03-04T02:04:26.182Z,60.07
2018-03-04T02:06:53.633Z,57.33
2018-03-04T02:09:21.081Z,62.80
2018-03-04T02:11:48.553Z,57.00
2018-03-04T02:14:15.998Z,57.80
2018-03-04T02:16:43.488Z,55.37
2018-03-04T02:19:10.941Z,56.70
2018-03-04T02:21:38.389Z,60.07
2018-03-04T02:24:05.861Z,60.13
2018-03-04T02:26:33.333Z,57.40
2018-03-04T02:29:01.106Z,57.93
2018-03-04T02:31:28.551Z,61.10
2018-03-04T02:33:56.005Z,58.20
2018-03-04T02:36:23.481Z,61.37
2018-03-04T02:38:50.942Z,64.13
2018-03-04T02:41:18.640Z,59.63
2018-03-04T02:43:46.095Z,58.50
2018-03-04T02:46:13.550Z,58.00
2018-03-04T02:48:41.017Z,62.30
2018-03-04T02:51:08.506Z,62.40
2018-03-04T02:53:36.010Z,62.03
2018-03-04T02:56:03.457Z,59.00
2018-03-04T02:58:30.914Z,61.00
2018-03-04T03:00:58.384Z,62.53
2018-03-04T03:03:25.834Z,61.33
2018-03-04T03:05:53.336Z,61.30
2018-03-04T03:08:20.801Z,64.50
2018-03-04T03:10:48.249Z,63.77
2018-03-04T03:13:15.733Z,59.10
2018-03-04T03:15:43.189Z,60.73
2018-03-04T03:18:10.681Z,60.17
2018-03-04T03:20:38.158Z,63.03
2018-03-04T03:23:05.610Z,62.20
2018-03-04T03:25:33.081Z,66.03
2018-03-04T03:28:00.529Z,63.57
2018-03-04T03:30:27.997Z,65.97
2018-03-04T03:32:55.446Z,62.67
2018-03-04T03:35:22.926Z,66.30
2018-03-04T03:37:50.397Z,60.37
2018-03-04T03:40:17.853Z,62.10
2018-03-04T03:42:45.448Z,65.97
2018-03-04T03:45:12.901Z,60.67
2018-03-04T03:47:40.349Z,62.10
2018-03-04T03:50:07.852Z,62.60
2018-03-04T03:52:35.293Z,63.90
2018-03-04T03:55:03.006Z,63.80
2018-03-04T03:57:30.463Z,61.60
2018-03-04T03:59:57.909Z,62.10
2018-03-04T04:02:25.382Z,55.73
2018-03-04T04:04:52.834Z,62.87
2018-03-04T04:07:20.469Z,60.83
2018-03-04T04:09:47.916Z,60.87
2018-03-04T04:12:15.361Z,64.93
2018-03-04T04:14:42.866Z,60.10
2018-03-04T04:17:10.349Z,62.33
2018-03-04T04:19:38.329Z,62.00
2018-03-04T04:22:05.785Z,60.90
2018-03-04T04:24:33.237Z,62.30
2018-03-04T04:27:00.704Z,60.90
2018-03-04T04:29:28.154Z,58.07
2018-03-04T04:31:55.838Z,65.17
2018-03-04T04:34:23.317Z,64.47
2018-03-04T04:36:50.791Z,60.10
2018-03-04T04:39:18.331Z,61.53
2018-03-04T04:41:45.772Z,58.90
2018-03-04T04:44:13.422Z,60.87
2018-03-04T04:46:40.871Z,63.90
2018-03-04T04:49:08.334Z,65.17
2018-03-04T04:51:35.812Z,64.17
2018-03-04T04:54:03.258Z,62.10
2018-03-04T04:56:30.737Z,65.10
2018-03-04T04:58:58.189Z,65.80
2018-03-04T05:01:25.637Z,67.50
2018-03-04T05:03:53.110Z,61.80
2018-03-04T05:06:20.565Z,63.27
2018-03-04T05:08:48.525Z,63.63
2018-03-04T05:11:15.973Z,63.83
2018-03-04T05:13:43.438Z,62.50
2018-03-04T05:16:10.921Z,62.37
2018-03-04T05:18:38.373Z,64.13
2018-03-04T05:21:06.173Z,61.87
2018-03-04T05:23:33.634Z,61.60
2018-03-04T05:26:01.093Z,64.37
2018-03-04T05:28:28.561Z,61.37
2018-03-04T05:30:56.024Z,61.70
2018-03-04T05:33:23.494Z,63.53
2018-03-04T05:35:50.949Z,65.77
2018-03-04T05:38:18.432Z,63.30
2018-03-04T05:40:45.906Z,66.20
2018-03-04T05:43:13.369Z,60.47
2018-03-04T05:45:40.873Z,63.20
2018-03-04T05:48:08.313Z,65.67
2018-03-04T05:50:35.762Z,68.23
2018-03-04T05:53:03.229Z,64.23
2018-03-04T05:55:30.676Z,63.77
2018-03-04T05:57:58.313Z,61.53
2018-03-04T06:00:25.769Z,63.40
2018-03-04T06:02:53.218Z,60.93
2018-03-04T06:05:20.706Z,62.80
2018-03-04T06:07:48.161Z,61.67
2018-03-04T06:10:15.652Z,66.30
2018-03-04T06:12:43.101Z,65.63
2018-03-04T06:15:10.552Z,64.53
2018-03-04T06:17:38.020Z,66.23
2018-03-04T06:20:05.474Z,69.63
2018-03-04T06:22:33.089Z,74.23
2018-03-04T06:25:00.546Z,70.40
2018-03-04T06:27:28.002Z,74.33
2018-03-04T06:29:55.522Z,66.20
2018-03-04T06:32:22.947Z,78.13
2018-03-04T06:34:50.873Z,81.87
2018-03-04T06:37:18.325Z,77.63
2018-03-04T06:39:45.773Z,80.17
2018-03-04T06:42:13.253Z,80.33
2018-03-04T06:44:40.717Z,80.27
2018-03-04T06:47:08.322Z,82.03
2018-03-04T06:49:35.793Z,79.60
2018-03-04T06:52:03.239Z,84.90
2018-03-04T06:54:30.716Z,85.03
2018-03-04T06:56:58.169Z,86.90
2018-03-04T06:59:25.658Z,87.07
2018-03-04T07:01:53.114Z,83.57
2018-03-04T07:04:20.581Z,80.93
2018-03-04T07:06:48.063Z,92.87
2018-03-04T07:09:15.519Z,85.23
2018-03-04T07:11:43.005Z,86.67
2018-03-04T07:14:10.490Z,94.20
2018-03-04T07:16:37.961Z,92.53
2018-03-04T07:19:05.426Z,92.60
2018-03-04T07:21:32.885Z,87.10
2018-03-04T07:24:00.377Z,87.00
2018-03-04T07:26:27.838Z,85.37
2018-03-04T07:28:55.301Z,84.10
2018-03-04T07:31:22.789Z,87.50
2018-03-04T07:33:50.233Z,78.57
2018-03-04T07:36:17.714Z,78.80
2018-03-04T07:38:45.169Z,74.47
2018-03-04T07:41:12.640Z,74.80
2018-03-04T07:43:40.114Z,74.67
2018-03-04T07:46:07.576Z,73.90
2018-03-04T07:48:35.062Z,70.60
2018-03-04T07:51:02.521Z,65.17
2018-03-04T07:53:29.996Z,69.17
2018-03-04T07:55:57.465Z,69.17
2018-03-04T07:58:24.913Z,63.27
2018-03-04T08:00:52.402Z,74.97
2018-03-04T08:03:19.860Z,62.20
2018-03-04T08:05:47.320Z,62.23
2018-03-04T08:08:14.792Z,60.00
2018-03-04T08:10:42.245Z,58.73
2018-03-04T08:13:10.099Z,63.37
2018-03-04T08:15:37.550Z,63.57
2018-03-04T08:18:05.027Z,65.80
2018-03-04T08:20:32.509Z,55.27
2018-03-04T08:22:59.987Z,62.23
2018-03-04T08:25:33.351Z,59.93
2018-03-04T08:28:12.797Z,51.10
2018-03-04T08:30:40.574Z,64.33
2018-03-04T08:33:08.032Z,58.37
2018-03-04T08:35:35.493Z,70.93
2018-03-04T08:38:03.009Z,64.10
2018-03-04T08:40:30.459Z,61.37
2018-03-04T08:42:58.125Z,58.23
2018-03-04T08:45:25.601Z,64.87
2018-03-04T08:47:53.067Z,60.67
2018-03-04T08:50:20.545Z,65.57
2018-03-04T08:52:48.025Z,62.87
2018-03-04T08:55:15.712Z,63.97
2018-03-04T08:57:43.205Z,54.93
2018-03-04T09:00:10.692Z,64.57
2018-03-04T09:02:38.161Z,48.43
2018-03-04T09:05:05.611Z,51.17
2018-03-04T09:07:33.122Z,46.50
2018-03-04T09:10:00.591Z,45.57
2018-03-04T09:12:28.046Z,48.47
2018-03-04T09:14:55.521Z,45.03
2018-03-04T09:17:22.985Z,48.03
2018-03-04T09:19:51.321Z,45.80
2018-03-04T09:22:18.795Z,42.40
2018-03-04T09:24:46.240Z,39.27
2018-03-04T09:27:13.709Z,38.00
2018-03-04T09:29:41.221Z,40.20
2018-03-04T09:32:09.001Z,38.00
2018-03-04T09:34:36.454Z,38.40
2018-03-04T09:37:03.929Z,35.23
2018-03-04T09:39:31.418Z,34.83
2018-03-04T09:41:58.864Z,39.00
2018-03-04T09:44:26.357Z,40.60
2018-03-04T09:46:53.802Z,40.40
2018-03-04T09:49:21.525Z,39.30
2018-03-04T09:51:49.906Z,38.70
2018-03-04T09:54:17.365Z,38.30
2018-03-04T09:56:44.872Z,38.10
2018-03-04T09:59:12.325Z,41.00
2018-03-04T10:01:39.812Z,38.50
2018-03-04T10:04:07.286Z,40.63
2018-03-04T10:06:34.749Z,35.77
2018-03-04T10:09:02.377Z,36.33
2018-03-04T10:11:29.853Z,38.57
2018-03-04T10:13:57.304Z,40.20
2018-03-04T10:16:24.796Z,35.50
2018-03-04T10:18:52.265Z,39.53
2018-03-04T10:21:19.758Z,40.10
2018-03-04T10:23:47.225Z,35.67
2018-03-04T10:26:14.698Z,34.70
2018-03-04T10:28:42.185Z,32.67
2018-03-04T10:31:09.662Z,38.33
2018-03-04T10:33:37.429Z,38.83
2018-03-04T10:36:04.877Z,36.17
2018-03-04T10:38:32.337Z,38.53
2018-03-04T10:40:59.811Z,35.10
2018-03-04T10:43:27.279Z,33.60
2018-03-04T10:45:54.751Z,33.17
2018-03-04T10:48:22.423Z,38.20
2018-03-04T10:50:49.882Z,38.63
2018-03-04T10:53:17.366Z,37.40
2018-03-04T10:55:44.813Z,35.50
2018-03-04T10:58:12.297Z,38.10
2018-03-04T11:00:48.330Z,37.53
2018-03-04T11:03:15.897Z,40.20
2018-03-04T11:05:43.375Z,37.77
2018-03-04T11:08:10.835Z,34.43
2018-03-04T11:10:38.304Z,37.30
2018-03-04T11:13:05.781Z,38.07
2018-03-04T11:15:33.413Z,38.20
2018-03-04T11:18:00.873Z,35.80
2018-03-04T11:20:28.393Z,38.00
2018-03-04T11:22:55.857Z,44.50
2018-03-04T11:25:23.336Z,45.90
2018-03-04T11:27:50.937Z,41.10
2018-03-04T11:30:18.393Z,42.97
2018-03-04T11:32:45.841Z,44.50
2018-03-04T11:35:13.321Z,46.47
2018-03-04T11:37:40.773Z,46.57
2018-03-04T11:40:08.417Z,47.77
2018-03-04T11:42:35.865Z,49.63
2018-03-04T11:45:03.316Z,45.07
2018-03-04T11:47:30.841Z,49.97
2018-03-04T11:49:58.296Z,45.17
2018-03-04T11:52:26.069Z,48.47
2018-03-04T11:54:53.529Z,44.77
2018-03-04T11:57:20.994Z,47.67
2018-03-04T11:59:48.477Z,44.00
2018-03-04T12:02:15.930Z,42.70
2018-03-04T12:04:43.624Z,47.17
2018-03-04T12:07:11.087Z,45.17
2018-03-04T12:09:38.555Z,46.30
2018-03-04T12:12:06.026Z,48.30
2018-03-04T12:14:33.500Z,48.43
2018-03-04T12:17:01.205Z,50.40
2018-03-04T12:19:28.682Z,52.20
2018-03-04T12:21:56.135Z,55.13
2018-03-04T12:24:23.634Z,46.23
2018-03-04T12:26:51.085Z,45.83
2018-03-04T12:29:18.726Z,46.57
2018-03-04T12:31:46.173Z,47.00
2018-03-04T12:34:13.618Z,46.23
2018-03-04T12:36:41.145Z,49.67
2018-03-04T12:39:08.553Z,47.10
2018-03-04T12:41:36.041Z,52.23
2018-03-04T12:44:03.489Z,49.57
2018-03-04T12:46:30.938Z,49.40
2018-03-04T12:48:58.451Z,51.80
2018-03-04T12:51:25.902Z,49.43
2018-03-04T12:53:53.384Z,51.10
2018-03-04T12:56:20.850Z,48.60
2018-03-04T12:58:48.312Z,51.50
2018-03-04T13:01:15.844Z,51.33
2018-03-04T13:03:43.281Z,53.10
2018-03-04T13:06:10.850Z,52.13
2018-03-04T13:08:38.325Z,51.80
2018-03-04T13:11:05.777Z,52.57
2018-03-04T13:13:33.245Z,50.30
2018-03-04T13:16:00.693Z,53.27
2018-03-04T13:18:28.350Z,55.83
2018-03-04T13:20:55.806Z,49.47
2018-03-04T13:23:23.266Z,51.47
2018-03-04T13:25:50.737Z,51.17
2018-03-04T13:28:18.183Z,55.40
2018-03-04T13:30:45.994Z,50.77
2018-03-04T13:33:13.489Z,47.33
2018-03-04T13:35:40.932Z,51.00
2018-03-04T13:38:08.420Z,48.90
2018-03-04T13:40:35.899Z,51.17
2018-03-04T13:43:03.425Z,47.90
2018-03-04T13:45:30.878Z,53.60
2018-03-04T13:47:58.325Z,49.63
2018-03-04T13:50:25.793Z,50.70
2018-03-04T13:52:53.241Z,51.33
2018-03-04T13:55:20.732Z,50.83
2018-03-04T13:57:48.179Z,50.90
2018-03-04T14:00:15.634Z,49.90
2018-03-04T14:02:43.112Z,50.20
2018-03-04T14:05:10.606Z,59.07
2018-03-04T14:07:38.105Z,62.43
2018-03-04T14:10:05.660Z,56.80
2018-03-04T14:12:33.111Z,63.60
2018-03-04T14:15:00.591Z,59.40
2018-03-04T14:17:28.046Z,57.20
2018-03-04T14:19:55.551Z,59.10
2018-03-04T14:22:23.005Z,60.40
2018-03-04T14:24:50.489Z,64.50
2018-03-04T14:27:17.982Z,60.63
2018-03-04T14:29:45.430Z,60.60
2018-03-04T14:32:13.026Z,61.73
2018-03-04T14:34:40.485Z,60.63
2018-03-04T14:37:07.934Z,63.97
2018-03-04T14:39:35.406Z,61.50
2018-03-04T14:42:02.881Z,61.33
2018-03-04T14:44:30.687Z,61.83
2018-03-04T14:46:58.145Z,56.83
2018-03-04T14:49:25.620Z,60.70
2018-03-04T14:51:53.117Z,59.80
2018-03-04T14:54:20.569Z,56.27
2018-03-04T14:56:48.062Z,61.83
2018-03-04T14:59:15.552Z,59.67
2018-03-04T15:01:42.997Z,58.17
2018-03-04T15:04:10.491Z,60.10
2018-03-04T15:06:37.945Z,64.07
2018-03-04T15:09:05.668Z,57.33
2018-03-04T15:11:33.145Z,59.77
2018-03-04T15:14:00.594Z,59.37
2018-03-04T15:16:28.093Z,59.50
2018-03-04T15:18:55.553Z,59.20
2018-03-04T15:21:23.062Z,55.27
2018-03-04T15:23:50.534Z,59.17
2018-03-04T15:26:17.992Z,57.37
2018-03-04T15:28:45.463Z,57.07
2018-03-04T15:31:12.912Z,56.13
2018-03-04T15:33:40.394Z,58.70
2018-03-04T15:36:07.861Z,58.57
2018-03-04T15:38:35.310Z,59.03
2018-03-04T15:41:02.847Z,61.23
2018-03-04T15:43:30.303Z,58.07
2018-03-04T15:45:57.933Z,55.13
2018-03-04T15:48:25.434Z,55.60
2018-03-04T15:50:52.886Z,55.73
2018-03-04T15:53:20.361Z,57.87
2018-03-04T15:55:47.863Z,56.70
2018-03-04T15:58:15.588Z,62.50
2018-03-04T16:00:43.044Z,59.70
2018-03-04T16:03:10.678Z,62.73
2018-03-04T16:05:38.159Z,59.90
2018-03-04T16:08:05.609Z,60.80
2018-03-04T16:10:33.199Z,62.17
2018-03-04T16:13:00.654Z,59.90
2018-03-04T16:15:28.118Z,57.43
2018-03-04T16:17:56.391Z,56.80
2018-03-04T16:20:23.853Z,60.93
2018-03-04T16:22:51.718Z,62.20
2018-03-04T16:25:19.203Z,57.50
2018-03-04T16:27:46.669Z,57.77
2018-03-04T16:30:14.149Z,57.37
2018-03-04T16:32:41.610Z,56.57
2018-03-04T16:35:09.470Z,64.10
2018-03-04T16:37:36.952Z,58.07
2018-03-04T16:40:04.423Z,59.53
2018-03-04T16:42:31.923Z,58.93
2018-03-04T16:44:59.815Z,55.30
2018-03-04T16:47:27.293Z,56.73
2018-03-04T16:49:54.752Z,57.67
2018-03-04T16:52:22.399Z,59.77
2018-03-04T16:54:49.886Z,57.93
2018-03-04T16:57:17.370Z,58.23
2018-03-04T16:59:45.049Z,61.57
2018-03-04T17:02:12.514Z,53.00
2018-03-04T17:04:39.980Z,56.20
2018-03-04T17:07:07.469Z,57.50
2018-03-04T17:09:34.925Z,54.67
2018-03-04T17:12:02.751Z,56.13
2018-03-04T17:14:30.202Z,51.40
2018-03-04T17:16:57.657Z,54.77
2018-03-04T17:19:25.154Z,55.27
2018-03-04T17:21:52.619Z,55.23
2018-03-04T17:24:20.107Z,58.10
2018-03-04T17:26:47.583Z,51.17
2018-03-04T17:29:15.042Z,52.13
2018-03-04T17:31:42.523Z,54.50
2018-03-04T17:34:09.973Z,53.33
2018-03-04T17:36:37.761Z,54.27
2018-03-04T17:39:05.237Z,49.43
2018-03-04T17:41:32.693Z,53.60
2018-03-04T17:44:00.195Z,53.97
2018-03-04T17:46:27.649Z,55.63
2018-03-04T17:48:55.151Z,50.23
2018-03-04T17:51:22.607Z,52.73
2018-03-04T17:53:50.080Z,50.57
2018-03-04T17:56:17.566Z,56.10
2018-03-04T17:58:45.025Z,54.30
2018-03-04T18:01:12.533Z,50.87
2018-03-04T18:03:39.989Z,53.90
2018-03-04T18:06:07.464Z,53.57
2018-03-04T18:08:34.956Z,53.67
2018-03-04T18:11:02.405Z,53.83
2018-03-04T18:13:29.994Z,56.77
2018-03-04T18:15:57.458Z,53.07
2018-03-04T18:18:24.917Z,56.50
2018-03-04T18:20:52.422Z,53.40
2018-03-04T18:23:19.890Z,52.53
2018-03-04T18:25:47.546Z,57.40
2018-03-04T18:28:15.001Z,55.20
2018-03-04T18:30:42.466Z,55.00
2018-03-04T18:33:09.943Z,52.77
2018-03-04T18:35:37.405Z,53.30
2018-03-04T18:38:04.889Z,50.57
2018-03-04T18:40:32.361Z,54.27
2018-03-04T18:42:59.835Z,51.80
2018-03-04T18:45:27.318Z,55.70
2018-03-04T18:47:54.784Z,55.10
2018-03-04T18:50:22.569Z,56.20
2018-03-04T18:52:50.221Z,52.97
2018-03-04T18:55:17.694Z,54.67
2018-03-04T18:57:45.145Z,56.80
2018-03-04T19:00:12.838Z,58.07
2018-03-04T19:02:40.298Z,53.50
2018-03-04T19:05:07.753Z,55.83
2018-03-04T19:07:35.243Z,59.23
2018-03-04T19:10:02.743Z,55.20
2018-03-04T19:12:30.597Z,52.87
2018-03-04T19:14:58.053Z,54.50
2018-03-04T19:17:25.510Z,52.80
2018-03-04T19:19:52.989Z,55.07
2018-03-04T19:22:20.482Z,54.47
2018-03-04T19:24:48.154Z,52.00
2018-03-04T19:27:15.614Z,51.13
2018-03-04T19:29:43.954Z,50.47
2018-03-04T19:32:11.441Z,51.93
2018-03-04T19:34:39.720Z,47.80
2018-03-04T19:37:07.343Z,44.70
2018-03-04T19:39:34.817Z,48.80
2018-03-04T19:42:02.266Z,49.83
2018-03-04T19:44:29.748Z,52.10
2018-03-04T19:46:58.197Z,54.03
2018-03-04T19:49:25.690Z,51.23
2018-03-04T19:51:53.165Z,50.87
2018-03-04T19:54:20.617Z,51.87
2018-03-04T19:56:48.102Z,51.17
2018-03-04T19:59:15.559Z,56.17
2018-03-04T20:01:43.062Z,56.47
2018-03-04T20:04:10.543Z,54.13
2018-03-04T20:06:38.002Z,55.17
2018-03-04T20:09:06.329Z,55.87
2018-03-04T20:11:33.948Z,55.40
2018-03-04T20:14:01.561Z,56.23
2018-03-04T20:16:29.009Z,56.90
2018-03-04T20:18:56.477Z,60.63
2018-03-04T20:21:23.950Z,52.77
2018-03-04T20:23:51.430Z,54.03
2018-03-04T20:26:19.096Z,57.37
2018-03-04T20:28:46.558Z,58.57
2018-03-04T20:31:14.033Z,63.83
2018-03-04T20:33:41.528Z,65.60
2018-03-04T20:36:08.988Z,58.40
2018-03-04T20:38:36.981Z,59.03
2018-03-04T20:41:04.448Z,58.00
2018-03-04T20:43:31.900Z,62.30
2018-03-04T20:45:59.365Z,61.00
2018-03-04T20:48:26.830Z,61.17
2018-03-04T20:50:54.498Z,64.90
2018-03-04T20:53:21.947Z,69.87
2018-03-04T20:55:49.402Z,61.90
2018-03-04T20:58:16.879Z,62.80
2018-03-04T21:00:44.332Z,64.50
2018-03-04T21:03:11.826Z,61.47
2018-03-04T21:05:39.300Z,62.97
2018-03-04T21:08:06.750Z,63.67
2018-03-04T21:10:34.249Z,63.87
2018-03-04T21:13:01.701Z,61.40
2018-03-04T21:15:29.191Z,61.00
2018-03-04T21:17:56.641Z,61.23
2018-03-04T21:20:24.094Z,61.47
2018-03-04T21:22:51.574Z,61.00
2018-03-04T21:25:19.020Z,63.27
2018-03-04T21:27:46.525Z,66.30
2018-03-04T21:30:13.994Z,63.40
2018-03-04T21:32:41.590Z,59.67
2018-03-04T21:35:09.041Z,62.43
2018-03-04T21:37:36.494Z,59.97
2018-03-04T21:40:03.962Z,57.97
2018-03-04T21:42:31.424Z,65.13
2018-03-04T21:44:59.138Z,69.10
2018-03-04T21:47:26.637Z,67.80
2018-03-04T21:49:54.115Z,65.57
2018-03-04T21:52:21.587Z,67.27
2018-03-04T21:54:49.043Z,60.23
2018-03-04T21:57:16.518Z,64.87
2018-03-04T21:59:43.982Z,64.23
2018-03-04T22:02:11.464Z,64.00
2018-03-04T22:04:38.951Z,63.00
2018-03-04T22:07:06.406Z,63.90
2018-03-04T22:09:34.242Z,61.60
2018-03-04T22:12:01.690Z,66.13
2018-03-04T22:14:29.149Z,66.27
2018-03-04T22:16:56.629Z,65.03
2018-03-04T22:19:24.082Z,68.30
2018-03-04T22:21:51.569Z,65.27
2018-03-04T22:24:19.017Z,65.03
2018-03-04T22:26:46.492Z,62.50
2018-03-04T22:29:13.983Z,60.90
2018-03-04T22:31:41.429Z,64.43
2018-03-04T22:34:08.918Z,58.20
2018-03-04T22:36:36.377Z,58.97
2018-03-04T22:39:03.824Z,56.93
2018-03-04T22:41:31.298Z,63.30
2018-03-04T22:43:58.773Z,61.33
2018-03-04T22:46:26.265Z,61.37
2018-03-04T22:48:53.713Z,61.60
2018-03-04T22:51:21.162Z,64.87
2018-03-04T22:53:48.646Z,59.67
2018-03-04T22:56:16.097Z,60.33
2018-03-04T22:58:43.593Z,63.17
2018-03-04T23:01:11.041Z,65.20
2018-03-04T23:03:38.481Z,60.43
2018-03-04T23:06:05.972Z,61.23
2018-03-04T23:08:33.422Z,62.07
2018-03-04T23:11:01.081Z,56.47
2018-03-04T23:13:28.529Z,61.77
2018-03-04T23:15:55.977Z,55.57
2018-03-04T23:18:23.453Z,59.20
2018-03-04T23:20:50.910Z,54.87
2018-03-04T23:23:18.394Z,52.67
2018-03-04T23:25:45.861Z,53.77
2018-03-04T23:28:13.338Z,50.30
2018-03-04T23:30:40.821Z,53.87
2018-03-04T23:33:08.269Z,46.57
2018-03-04T23:35:35.994Z,46.07
2018-03-04T23:38:03.449Z,46.63
2018-03-04T23:40:30.899Z,44.43
2018-03-04T23:42:58.369Z,41.87
2018-03-04T23:45:25.837Z,44.33
2018-03-04T23:47:53.630Z,43.57
2018-03-04T23:50:21.078Z,44.00
2018-03-04T23:52:48.533Z,48.20
2018-03-04T23:55:16.024Z,43.10
2018-03-04T23:57:43.491Z,42.00
